Terminal Aerodrome Forecast
Issued by NWS

Home | Current Version | Previous Version | Text Only | Print | Product List | Glossary On
Versions: 1 2 3 4 5 6 7 8 9 10 11 12 13 14 15 16 17 18 19 20 21 22 23
000
FTUS45 KBOI 292336
TAFMYL
TAF
KMYL 292336Z 3000/3024 19011KT P6SM SCT120
     FM300300 VRB05KT P6SM -SHRA BKN050 OVC080
     FM300900 VRB03KT P6SM VCSH SCT050 BKN080
     FM301200 VRB05KT P6SM SCT080 BKN200
     FM301900 24010G18KT P6SM SCT100 BKN200=

USA.gov is the U.S. government's official web portal to all federal, state and local government web resources and services.